Moorhead, Minnesota
Current Conditions -  °F | °C
As of 12:10 AM on Wednesday 26 Nov 2014 (Local Time) from KFAR Reporting Station
Haze Haze  
Wind Chill:   Ceiling: 3800
Heat Index: 19°   Visibility: 5mi
Dew Point: 15°   Wind: 20mph
Humidity: 85%   Direction: 10°N
Pressure: 30.07"   Gusts: NA
Location:  46.88°N, 96.77°W
Report Text: KFAR 260610Z 01017KT 5SM BR SCT010 OVC038 M07/M09 A3007 RMK AO2 SNE06 P0000 T10721094
Loading
Personal Weather Stations






























Interactive Weather Map New forecast layout! Learn more

10-Day Weather Forecast

Advertisements
Track Severe Weather on mobile